Sagar Kanya — VTJR — position and weather

sailwx.info

Track history (hours):
 
Tides and Currents Weather Stations Pressure Air Temp Water Temp Dewpoint Dewpoint Depression Visibility Wind Speed Wind Dir Waves Ship Positions

Oceanographic research ship Sagar Kanya (India)

Detailed information on ship capabilities available from University of Delaware's Ocean Information Center.

Last reported at 2019-Apr-17 02:35 UTC. Time now 2019-Apr-18 20:52 UTC.
Position N 17°48' E 071°12'.

Type: Other ship. MMSI: 419320000.

Wind from 040 at 12 knots

Barometer 1013.2 mb
Air temperature 27.8 ° C

Date/timePositionNaut miles runAvg speedWind from/ knotsBaromVisibWave heightAir tempDewpointWater temp
2019-Apr-17 02:35N 17°48' E 071°12'13 5.2 040 / 121013.2 27.8
2019-Apr-17 00:05N 17°54' E 071°00'13 4.3 010 / 121011.6 27.0
2019-Apr-16 21:05N 18°00' E 070°48'19 6.3 320 / 81011.1 27.3
2019-Apr-16 18:05N 18°18' E 070°42'13 4.3 340 / 161012.0 27.6
2019-Apr-16 15:05N 18°24' E 070°30'21 7.0 310 / 81011.3 27.8
2019-Apr-16 12:05N 18°36' E 070°12'13 3.8 320 / 81009.7 29.5
2019-Apr-16 08:35N 18°48' E 070°06'0 0.0 330 / 41011.2 29.1
2019-Apr-16 06:05N 18°48' E 070°06'17 4.9 340 / 61012.9 29.3
2019-Apr-16 02:35N 18°48' E 069°48'29 5.3 340 / 81011.4 27.9
2019-Apr-15 21:05N 19°06' E 069°24'18 6.0 300 / 81010.3 26.8
2019-Apr-15 18:05N 19°12' E 069°06'69 5.8 330 / 81021.6 27.1
2019-Apr-15 06:05N 19°42' E 068°00'36 6.0 050 / 191013.2 27.1
2019-Apr-15 00:05N 19°54' E 067°24'31 5.1 350 / 121011.1 27.4
2019-Apr-14 18:05N 20°06' E 066°54'92 6.1 350 / 61012.7 27.3
2019-Apr-14 03:05N 20°42' E 065°24'0 0.0 260 / 101013.3 28.3
2019-Apr-14 00:05N 20°42' E 065°24'0 0.0 090 / 81010.7 27.4
2019-Apr-13 21:05N 20°42' E 065°24'18 6.0 050 / 101011.1 27.1
2019-Apr-13 18:05N 20°36' E 065°42'45 5.0 350 / 121013.0 27.2
2019-Apr-13 09:06N 20°30' E 066°30'23 7.8 310 / 81012.3 27.7
2019-Apr-13 06:06N 20°24' E 066°54'6 2.0 250 / 41013.8 27.5
2019-Apr-13 03:06N 20°18' E 066°54'18 6.0 280 / 41012.6 27.1
2019-Apr-13 00:06N 20°00' E 066°54'6 1.9 320 / 61010.6 26.7
2019-Apr-12 21:06N 20°00' E 067°00'6 0.5 300 / 101010.7 26.9
2019-Apr-12 09:06N 19°54' E 067°00'6 2.0 340 / 101012.1 28.4
2019-Apr-12 06:06N 19°48' E 067°00'19 6.3 1014.2 27.6
2019-Apr-12 03:06N 19°30' E 067°06'18 5.1 350 / 81012.7 27.2
2019-Apr-11 23:36N 19°12' E 067°06'13 5.3 320 / 81010.6 27.0
2019-Apr-11 21:06N 19°00' E 067°12'18 6.0 340 / 121010.1 26.9
2019-Apr-11 18:06N 18°42' E 067°12'0 0.0 1012.1 27.4
2019-Apr-11 15:06N 18°42' E 067°12'6 1.0 330 / 101011.5 28.2
2019-Apr-11 09:06N 18°36' E 067°12'0 0.0 340 / 161011.3 28.6
2019-Apr-11 05:36N 18°36' E 067°12'0 0.0 350 / 81014.2 27.6
2019-Apr-11 03:06N 18°36' E 067°12'11 3.8 350 / 81014.2 27.4
2019-Apr-11 00:06N 18°36' E 067°24'6 2.0 330 / 121012.3 26.6
2019-Apr-10 21:06N 18°42' E 067°24'6 1.6 280 / 121012.7 26.8
2019-Apr-10 17:36N 18°42' E 067°18'0 0.0 310 / 141013.9 27.3
2019-Apr-10 15:06N 18°42' E 067°18'6 1.9 300 / 121013.4 27.4
2019-Apr-10 12:06N 18°42' E 067°12'25 4.1 300 / 161011.8 28.4
2019-Apr-10 06:06N 18°18' E 067°06'19 6.3 280 / 61013.8 27.0
2019-Apr-10 03:06N 18°00' E 067°00'0 0.0 290 / 61013.6 27.1
2019-Apr-10 00:06N 18°00' E 067°00'18 6.0 280 / 21011.4 26.2
2019-Apr-09 21:06N 17°42' E 067°00'12 4.0 360 / 41011.7 26.8
2019-Apr-09 18:06N 17°30' E 067°00'18 6.0 340 / 61013.1 27.3
2019-Apr-09 15:06N 17°12' E 067°00'12 4.0 330 / 41012.4 27.6
2019-Apr-09 12:06N 17°00' E 067°00'18 6.0 310 / 101011.0 28.1
2019-Apr-09 09:06N 16°42' E 067°00'18 6.0 300 / 101012.0 27.8
2019-Apr-09 06:06N 16°24' E 067°00'18 6.0 290 / 61013.6 27.7
2019-Apr-09 03:06N 16°06' E 067°00'24 8.0 300 / 81012.7 27.4
2019-Apr-09 00:06N 15°42' E 067°00'18 6.0 300 / 61010.8 27.2
2019-Apr-08 21:06N 15°24' E 067°00'18 6.0 280 / 41011.0 27.0
2019-Apr-08 18:06N 15°06' E 067°00'6 2.0 310 1012.9 27.7
2019-Apr-08 15:06N 15°00' E 067°00'12 4.0 1012.0 27.9
2019-Apr-08 12:06N 14°48' E 067°00'18 6.0 360 / 41010.6 28.4
2019-Apr-08 09:06N 14°30' E 067°00'24 6.9 350 / 41011.3 28.4
2019-Apr-08 05:36N 14°06' E 067°00'12 4.8 310 / 61012.7 28.1
2019-Apr-08 03:06N 13°54' E 067°00'   300 / 81011.9 27.8
Track history (hours):
 
Tides and Currents Weather Stations Pressure Air Temp Water Temp Dewpoint Dewpoint Depression Visibility Wind Speed Wind Dir Waves Ship Positions

Oceanographic research ship Sagar Kanya (India)

Detailed information on ship capabilities available from University of Delaware's Ocean Information Center.

Last reported at 2019-Apr-17 02:35 UTC. Time now 2019-Apr-18 20:52 UTC.
Position N 17°48' E 071°12'.

Type: Other ship. MMSI: 419320000.

Wind from 040 at 12 knots

Barometer 1013.2 mb
Air temperature 27.8 ° C

Date/timePositionNaut miles runAvg speedWind from/ knotsBaromVisibWave heightAir tempDewpointWater temp
2019-Apr-17 02:35N 17°48' E 071°12'13 5.2 040 / 121013.2 27.8
2019-Apr-17 00:05N 17°54' E 071°00'13 4.3 010 / 121011.6 27.0
2019-Apr-16 21:05N 18°00' E 070°48'19 6.3 320 / 81011.1 27.3
2019-Apr-16 18:05N 18°18' E 070°42'13 4.3 340 / 161012.0 27.6
2019-Apr-16 15:05N 18°24' E 070°30'21 7.0 310 / 81011.3 27.8
2019-Apr-16 12:05N 18°36' E 070°12'13 3.8 320 / 81009.7 29.5
2019-Apr-16 08:35N 18°48' E 070°06'0 0.0 330 / 41011.2 29.1
2019-Apr-16 06:05N 18°48' E 070°06'17 4.9 340 / 61012.9 29.3
2019-Apr-16 02:35N 18°48' E 069°48'29 5.3 340 / 81011.4 27.9
2019-Apr-15 21:05N 19°06' E 069°24'18 6.0 300 / 81010.3 26.8
2019-Apr-15 18:05N 19°12' E 069°06'69 5.8 330 / 81021.6 27.1
2019-Apr-15 06:05N 19°42' E 068°00'36 6.0 050 / 191013.2 27.1
2019-Apr-15 00:05N 19°54' E 067°24'31 5.1 350 / 121011.1 27.4
2019-Apr-14 18:05N 20°06' E 066°54'92 6.1 350 / 61012.7 27.3
2019-Apr-14 03:05N 20°42' E 065°24'0 0.0 260 / 101013.3 28.3
2019-Apr-14 00:05N 20°42' E 065°24'0 0.0 090 / 81010.7 27.4
2019-Apr-13 21:05N 20°42' E 065°24'18 6.0 050 / 101011.1 27.1
2019-Apr-13 18:05N 20°36' E 065°42'45 5.0 350 / 121013.0 27.2
2019-Apr-13 09:06N 20°30' E 066°30'23 7.8 310 / 81012.3 27.7
2019-Apr-13 06:06N 20°24' E 066°54'6 2.0 250 / 41013.8 27.5
2019-Apr-13 03:06N 20°18' E 066°54'18 6.0 280 / 41012.6 27.1
2019-Apr-13 00:06N 20°00' E 066°54'6 1.9 320 / 61010.6 26.7
2019-Apr-12 21:06N 20°00' E 067°00'6 0.5 300 / 101010.7 26.9
2019-Apr-12 09:06N 19°54' E 067°00'6 2.0 340 / 101012.1 28.4
2019-Apr-12 06:06N 19°48' E 067°00'19 6.3 1014.2 27.6
2019-Apr-12 03:06N 19°30' E 067°06'18 5.1 350 / 81012.7 27.2
2019-Apr-11 23:36N 19°12' E 067°06'13 5.3 320 / 81010.6 27.0
2019-Apr-11 21:06N 19°00' E 067°12'18 6.0 340 / 121010.1 26.9
2019-Apr-11 18:06N 18°42' E 067°12'0 0.0 1012.1 27.4
2019-Apr-11 15:06N 18°42' E 067°12'6 1.0 330 / 101011.5 28.2
2019-Apr-11 09:06N 18°36' E 067°12'0 0.0 340 / 161011.3 28.6
2019-Apr-11 05:36N 18°36' E 067°12'0 0.0 350 / 81014.2 27.6
2019-Apr-11 03:06N 18°36' E 067°12'11 3.8 350 / 81014.2 27.4
2019-Apr-11 00:06N 18°36' E 067°24'6 2.0 330 / 121012.3 26.6
2019-Apr-10 21:06N 18°42' E 067°24'6 1.6 280 / 121012.7 26.8
2019-Apr-10 17:36N 18°42' E 067°18'0 0.0 310 / 141013.9 27.3
2019-Apr-10 15:06N 18°42' E 067°18'6 1.9 300 / 121013.4 27.4
2019-Apr-10 12:06N 18°42' E 067°12'25 4.1 300 / 161011.8 28.4
2019-Apr-10 06:06N 18°18' E 067°06'19 6.3 280 / 61013.8 27.0
2019-Apr-10 03:06N 18°00' E 067°00'0 0.0 290 / 61013.6 27.1
2019-Apr-10 00:06N 18°00' E 067°00'18 6.0 280 / 21011.4 26.2
2019-Apr-09 21:06N 17°42' E 067°00'12 4.0 360 / 41011.7 26.8
2019-Apr-09 18:06N 17°30' E 067°00'18 6.0 340 / 61013.1 27.3
2019-Apr-09 15:06N 17°12' E 067°00'12 4.0 330 / 41012.4 27.6
2019-Apr-09 12:06N 17°00' E 067°00'18 6.0 310 / 101011.0 28.1
2019-Apr-09 09:06N 16°42' E 067°00'18 6.0 300 / 101012.0 27.8
2019-Apr-09 06:06N 16°24' E 067°00'18 6.0 290 / 61013.6 27.7
2019-Apr-09 03:06N 16°06' E 067°00'24 8.0 300 / 81012.7 27.4
2019-Apr-09 00:06N 15°42' E 067°00'18 6.0 300 / 61010.8 27.2
2019-Apr-08 21:06N 15°24' E 067°00'18 6.0 280 / 41011.0 27.0
2019-Apr-08 18:06N 15°06' E 067°00'6 2.0 310 1012.9 27.7
2019-Apr-08 15:06N 15°00' E 067°00'12 4.0 1012.0 27.9
2019-Apr-08 12:06N 14°48' E 067°00'18 6.0 360 / 41010.6 28.4
2019-Apr-08 09:06N 14°30' E 067°00'24 6.9 350 / 41011.3 28.4
2019-Apr-08 05:36N 14°06' E 067°00'12 4.8 310 / 61012.7 28.1
2019-Apr-08 03:06N 13°54' E 067°00'   300 / 81011.9 27.8

Dump ship's entire track history